Time;durP1;ratioP1;P1;durP2;ratioP2;P2;SDS_P1;SDS_P2;PMS_P1;PMS_P2;Temp;Humidity;BMP_temperature;BMP_pressure;BME280_temperature;BME280_humidity;BME280_pressure;Samples;Min_cycle;Max_cycle;Signal;HPM_P1;HPM_P2
2021/07/11 00:00:21;;;;;;;5.78;4.20;;;;;;;17.46;81.66;97305.06;4984429;28;20027;-73
2021/07/11 00:02:46;;;;;;;5.30;4.00;;;;;;;17.44;81.73;97312.47;4952037;29;20031;-73
2021/07/11 00:05:16;;;;;;;10.32;4.35;;;;;;;17.34;83.01;97300.78;4984261;28;20114;-72
2021/07/11 00:07:41;;;;;;;6.18;4.15;;;;;;;17.31;83.77;97306.50;4984165;28;20038;-73
2021/07/11 00:10:09;;;;;;;7.78;4.40;;;;;;;17.35;84.45;97308.75;4968001;28;20027;-73
2021/07/11 00:12:35;;;;;;;6.40;4.70;;;;;;;17.32;84.86;97313.56;4966279;28;20051;-73
2021/07/11 00:15:01;;;;;;;8.00;4.90;;;;;;;17.22;86.00;97312.75;4952049;29;20035;-73
2021/07/11 00:17:27;;;;;;;7.10;5.30;;;;;;;17.23;85.81;97309.88;4967891;28;20042;-73
2021/07/11 00:19:52;;;;;;;8.10;4.65;;;;;;;17.16;86.26;97307.91;4983940;28;20027;-72
2021/07/11 00:22:18;;;;;;;8.80;4.63;;;;;;;17.12;85.53;97303.78;4984213;28;20070;-73
2021/07/11 00:24:44;;;;;;;10.13;4.82;;;;;;;17.10;86.86;97311.19;4984054;28;20114;-73
2021/07/11 00:27:10;;;;;;;8.95;4.55;;;;;;;16.99;87.24;97309.44;4953170;28;20479;-74
2021/07/11 00:29:36;;;;;;;7.22;4.50;;;;;;;16.93;88.96;97303.75;4952968;28;20027;-73
2021/07/11 00:32:02;;;;;;;9.30;5.05;;;;;;;16.90;89.27;97310.28;4953061;28;20023;-73
2021/07/11 00:34:28;;;;;;;16.20;4.70;;;;;;;16.86;89.42;97306.16;4983585;28;20152;-73
2021/07/11 00:36:54;;;;;;;7.90;5.10;;;;;;;16.85;90.00;97303.59;4951856;29;20033;-73
2021/07/11 00:39:19;;;;;;;6.53;5.05;;;;;;;16.82;90.50;97309.28;4951716;29;20058;-73
2021/07/11 00:41:45;;;;;;;7.80;4.85;;;;;;;16.77;90.03;97304.28;4952612;29;20035;-74
2021/07/11 00:44:11;;;;;;;8.38;4.90;;;;;;;16.74;90.02;97296.47;4953126;28;20414;-73
2021/07/11 00:46:37;;;;;;;11.90;5.00;;;;;;;16.70;90.79;97295.88;4951543;29;20031;-73
2021/07/11 00:49:04;;;;;;;7.13;4.57;;;;;;;16.70;89.59;97295.88;4967541;28;20410;-72
2021/07/11 00:51:30;;;;;;;9.02;4.35;;;;;;;16.62;89.74;97297.56;4967536;28;20498;-72
2021/07/11 00:53:55;;;;;;;9.98;4.53;;;;;;;16.57;88.69;97287.19;4985915;28;20035;-73
2021/07/11 00:56:21;;;;;;;10.88;4.93;;;;;;;16.64;89.12;97291.03;4956697;29;20028;-74
2021/07/11 00:58:47;;;;;;;9.63;4.75;;;;;;;16.61;90.74;97296.72;4955184;28;20042;-72
2021/07/11 01:01:36;;;;;;;8.05;5.40;;;;;;;16.57;90.79;97289.91;4971345;28;20039;-73
2021/07/11 01:04:09;;;;;;;16.65;5.25;;;;;;;16.56;91.03;97288.19;4934164;29;20126;-73
2021/07/11 01:06:38;;;;;;;;;;;;;;;16.50;91.41;97286.00;4971533;28;20066;-73
2021/07/11 01:09:07;;;;;;;9.88;4.80;;;;;;;16.50;90.21;97290.53;4987423;28;19918;-73
2021/07/11 01:11:41;;;;;;;7.32;5.15;;;;;;;16.48;90.25;97288.00;4955257;29;20082;-73
2021/07/11 01:14:07;;;;;;;5.20;4.10;;;;;;;16.49;89.38;97292.38;4938858;29;20399;-73
2021/07/11 01:16:33;;;;;;;9.52;4.72;;;;;;;16.46;89.79;97292.66;4987170;28;20070;-73
2021/07/11 01:19:05;;;;;;;8.68;5.00;;;;;;;16.45;88.79;97285.56;4954850;29;20102;-74
2021/07/11 01:21:34;;;;;;;5.70;4.78;;;;;;;16.39;88.98;97288.81;4987148;28;20082;-73
2021/07/11 01:24:27;;;;;;;5.75;4.97;;;;;;;16.41;89.36;97297.63;4979248;28;20038;-73
2021/07/11 01:26:52;;;;;;;10.48;4.78;;;;;;;16.42;89.08;97291.25;4970528;28;20027;-73
2021/07/11 01:29:19;;;;;;;6.15;4.65;;;;;;;16.47;89.01;97299.78;4954729;29;20027;-73
2021/07/11 01:31:45;;;;;;;6.55;5.10;;;;;;;16.43;88.73;97292.06;4986875;28;20403;-73
2021/07/11 01:34:11;;;;;;;9.70;4.57;;;;;;;16.42;89.38;97293.09;4955896;28;20034;-72
2021/07/11 01:36:38;;;;;;;8.27;5.25;;;;;;;16.43;89.26;97303.72;4986746;28;20027;-73
2021/07/11 01:39:04;;;;;;;9.40;5.43;;;;;;;16.40;90.00;97293.22;4955743;28;20033;-73
2021/07/11 01:41:30;;;;;;;6.05;4.68;;;;;;;16.41;89.91;97286.81;4986783;28;20038;-72
2021/07/11 01:43:56;;;;;;;5.82;4.90;;;;;;;16.43;89.76;97282.13;4986691;28;20499;-73
2021/07/11 01:46:23;;;;;;;11.65;4.63;;;;;;;16.43;89.51;97286.66;4954563;29;20098;-72
2021/07/11 01:48:48;;;;;;;6.53;4.78;;;;;;;16.48;89.08;97288.00;4986619;28;20019;-74
2021/07/11 01:51:14;;;;;;;5.68;4.40;;;;;;;16.43;89.13;97300.16;4986754;28;20062;-72
2021/07/11 01:53:46;;;;;;;12.27;5.35;;;;;;;16.36;90.24;97297.19;4954101;29;20030;-73
2021/07/11 01:56:12;;;;;;;7.60;4.90;;;;;;;16.39;90.81;97286.13;4986055;28;20480;-73
2021/07/11 01:58:42;;;;;;;6.63;4.32;;;;;;;16.40;90.99;97287.81;4986415;28;20267;-73
2021/07/11 02:01:11;;;;;;;10.40;5.13;;;;;;;16.37;92.15;97296.19;4959380;28;20062;-74
2021/07/11 02:03:38;;;;;;;8.07;5.03;;;;;;;16.36;91.83;97302.59;4951494;28;20027;-73
2021/07/11 02:06:05;;;;;;;9.95;5.43;;;;;;;16.31;92.28;97304.81;4970071;28;20034;-73
2021/07/11 02:08:31;;;;;;;8.05;5.20;;;;;;;16.27;93.34;97296.13;4955145;28;20415;-72
2021/07/11 02:10:57;;;;;;;13.15;5.60;;;;;;;16.32;93.21;97314.63;4969914;28;20050;-72
2021/07/11 02:13:40;;;;;;;9.65;5.57;;;;;;;16.29;92.88;97309.53;4986310;28;20118;-73
2021/07/11 02:16:27;;;;;;;10.05;5.60;;;;;;;16.31;93.47;97321.03;4986163;28;20038;-73
2021/07/11 02:18:54;;;;;;;10.00;6.25;;;;;;;16.23;93.70;97308.22;4951882;29;20032;-74
2021/07/11 02:21:22;;;;;;;12.93;6.30;;;;;;;16.21;94.67;97314.75;4969731;28;20035;-74
2021/07/11 02:23:48;;;;;;;14.25;6.68;;;;;;;16.18;94.71;97323.13;4969777;28;20530;-73
2021/07/11 02:26:14;;;;;;;15.63;7.00;;;;;;;16.10;95.08;97312.97;4950734;29;20024;-72
2021/07/11 02:28:40;;;;;;;12.23;7.07;;;;;;;16.12;95.80;97320.94;4965910;28;20162;-72
2021/07/11 02:31:11;;;;;;;15.05;6.60;;;;;;;16.15;94.60;97320.69;4969442;28;20054;-73
2021/07/11 02:33:37;;;;;;;9.48;5.78;;;;;;;16.08;94.81;97323.06;4984391;28;20027;-72
2021/07/11 02:36:13;;;;;;;10.70;5.57;;;;;;;15.97;95.13;97324.97;4952307;29;20042;-72
2021/07/11 02:38:53;;;;;;;12.90;5.97;;;;;;;15.99;95.93;97337.38;4984768;28;20097;-72
2021/07/11 02:41:20;;;;;;;10.93;6.10;;;;;;;15.91;96.42;97325.50;4952528;29;20411;-72
2021/07/11 02:43:47;;;;;;;8.85;6.45;;;;;;;15.84;96.03;97333.31;4968463;28;20019;-72
2021/07/11 02:46:17;;;;;;;11.13;5.90;;;;;;;15.65;96.78;97328.63;4944860;29;20027;-73
2021/07/11 02:48:43;;;;;;;15.73;6.50;;;;;;;15.55;98.24;97333.09;4952574;29;20030;-74
2021/07/11 02:51:11;;;;;;;11.27;7.10;;;;;;;15.47;98.72;97330.19;4968137;28;20119;-74
2021/07/11 02:53:38;;;;;;;12.10;7.07;;;;;;;15.46;99.24;97333.84;4968268;28;20042;-74
2021/07/11 02:56:04;;;;;;;8.00;6.28;;;;;;;15.47;98.86;97319.41;4984385;28;20027;-74
2021/07/11 02:58:30;;;;;;;11.40;6.07;;;;;;;15.54;97.23;97323.28;4984319;28;20035;-72
2021/07/11 03:00:56;;;;;;;8.63;5.50;;;;;;;15.48;96.95;97342.69;4952252;29;20064;-73
2021/07/11 03:03:22;;;;;;;10.10;6.15;;;;;;;15.49;98.07;97352.50;4984510;28;20027;-73
2021/07/11 03:05:48;;;;;;;10.27;5.72;;;;;;;15.45;99.00;97344.75;4968497;28;20031;-72
2021/07/11 03:08:13;;;;;;;9.68;5.60;;;;;;;15.36;99.69;97341.00;4968012;28;20023;-73
2021/07/11 03:10:39;;;;;;;7.70;6.22;;;;;;;15.40;98.46;97350.53;4984264;28;20451;-73
2021/07/11 03:13:06;;;;;;;7.60;6.10;;;;;;;15.39;98.78;97351.50;4984067;28;20126;-73
2021/07/11 03:15:32;;;;;;;10.63;6.38;;;;;;;15.46;98.24;97349.16;4983942;28;20027;-73
2021/07/11 03:17:59;;;;;;;12.77;6.75;;;;;;;15.59;97.55;97353.44;4952877;28;20038;-74
2021/07/11 03:20:25;;;;;;;12.02;6.18;;;;;;;15.62;97.09;97355.84;4984141;28;20407;-73
2021/07/11 03:22:53;;;;;;;11.05;6.68;;;;;;;15.71;96.60;97343.44;4968295;28;20130;-73
2021/07/11 03:25:20;;;;;;;9.38;6.55;;;;;;;15.78;96.42;97351.84;4951920;29;20035;-73
2021/07/11 03:27:47;;;;;;;8.63;6.50;;;;;;;15.87;95.65;97348.34;4967871;28;20094;-73
2021/07/11 03:30:18;;;;;;;13.10;6.55;;;;;;;15.96;95.52;97358.34;4952719;28;20041;-73
2021/07/11 03:32:44;;;;;;;23.33;7.43;;;;;;;16.01;95.28;97350.69;4951951;29;20545;-73
2021/07/11 03:35:12;;;;;;;20.20;6.82;;;;;;;16.03;94.80;97343.31;4906576;28;1358119;-73
2021/07/11 03:37:42;;;;;;;13.57;6.75;;;;;;;16.11;94.99;97359.72;4984850;28;20114;-73
2021/07/11 03:40:09;;;;;;;14.40;7.05;;;;;;;16.04;94.81;97353.13;4952301;29;20059;-73
2021/07/11 03:42:39;;;;;;;10.73;5.82;;;;;;;16.09;92.88;97353.56;4984798;28;20023;-73
2021/07/11 03:45:06;;;;;;;8.38;6.07;;;;;;;16.03;93.94;97364.91;4950248;29;20038;-73
2021/07/11 03:47:38;;;;;;;14.63;6.82;;;;;;;15.96;93.91;97358.34;4984670;28;20460;-73
2021/07/11 03:50:05;;;;;;;14.35;6.90;;;;;;;15.96;94.88;97359.22;4984291;28;20102;-73
2021/07/11 03:52:35;;;;;;;11.68;6.50;;;;;;;16.10;94.43;97366.09;4968194;28;20031;-73
2021/07/11 03:55:01;;;;;;;12.27;6.60;;;;;;;16.03;94.32;97365.75;4984405;28;20154;-73
2021/07/11 03:57:27;;;;;;;13.38;6.68;;;;;;;15.98;95.73;97369.84;4984456;28;20062;-73
2021/07/11 03:59:53;;;;;;;11.32;6.72;;;;;;;16.05;95.20;97363.81;4948841;29;20024;-72
2021/07/11 04:02:19;;;;;;;12.32;6.35;;;;;;;16.19;94.74;97370.69;4983588;28;20024;-72
2021/07/11 04:04:45;;;;;;;11.68;6.47;;;;;;;16.27;93.87;97376.28;4984344;28;20114;-72
2021/07/11 04:07:11;;;;;;;16.15;7.35;;;;;;;16.38;93.03;97369.94;4984031;28;20182;-73
2021/07/11 04:09:37;;;;;;;11.00;7.10;;;;;;;16.45;92.31;97366.56;4953279;28;20529;-72
2021/07/11 04:12:03;;;;;;;8.52;6.90;;;;;;;16.64;91.13;97377.44;4984141;28;20031;-73
2021/07/11 04:14:29;;;;;;;14.43;6.30;;;;;;;16.75;90.51;97369.28;4951997;29;20028;-73
2021/07/11 04:17:01;;;;;;;10.55;6.57;;;;;;;16.88;90.45;97378.97;4952216;29;20170;-73
2021/07/11 04:19:27;;;;;;;;;;;;;;;17.00;89.12;97378.72;4949212;29;20032;-73
2021/07/11 04:21:53;;;;;;;13.93;6.57;;;;;;;17.10;88.81;97378.75;4996045;28;19915;-73
2021/07/11 04:24:21;;;;;;;9.40;6.57;;;;;;;17.19;88.45;97372.50;4951833;29;20059;-74
2021/07/11 04:26:47;;;;;;;13.52;6.60;;;;;;;17.33;87.96;97382.88;4967765;28;20023;-75
2021/07/11 04:29:13;;;;;;;11.02;6.82;;;;;;;17.43;86.58;97386.47;4954409;29;20162;-75
2021/07/11 04:31:39;;;;;;;14.80;7.15;;;;;;;17.55;86.71;97388.06;4987990;28;20038;-74
2021/07/11 04:34:33;;;;;;;18.45;6.68;;;;;;;17.75;84.43;97386.19;4968658;28;20039;-74
2021/07/11 04:37:02;;;;;;;13.50;6.63;;;;;;;17.88;83.27;97393.03;4954400;28;20035;-75
2021/07/11 04:39:27;;;;;;;10.13;6.85;;;;;;;17.97;83.32;97383.19;4954379;28;20990;-75
2021/07/11 04:41:54;;;;;;;13.20;6.65;;;;;;;18.10;82.24;97393.72;4953492;29;20098;-75
2021/07/11 04:44:20;;;;;;;10.60;5.95;;;;;;;18.17;81.36;97393.00;4985422;28;20038;-75
2021/07/11 04:46:45;;;;;;;9.98;6.43;;;;;;;18.33;79.42;97397.81;4952775;28;20038;-76
2021/07/11 04:49:11;;;;;;;12.35;6.30;;;;;;;18.43;80.75;97404.91;4952693;29;20035;-75
2021/07/11 04:51:37;;;;;;;16.02;7.00;;;;;;;18.62;81.01;97401.31;4949921;29;20163;-76
2021/07/11 04:54:07;;;;;;;14.35;6.97;;;;;;;18.94;81.72;97400.91;4970277;28;20035;-76
2021/07/11 04:56:33;;;;;;;19.85;7.22;;;;;;;19.96;76.93;97408.59;4970433;28;20491;-75
2021/07/11 04:58:59;;;;;;;16.60;7.85;;;;;;;20.90;72.26;97397.91;4938082;29;20042;-75
2021/07/11 05:01:25;;;;;;;13.57;8.00;;;;;;;22.38;63.23;97403.38;4987053;28;20077;-74
2021/07/11 05:03:54;;;;;;;19.25;8.05;;;;;;;23.32;60.50;97411.63;4986764;28;20054;-75
2021/07/11 05:06:20;;;;;;;16.23;8.07;;;;;;;24.78;54.75;97419.69;4970936;28;20097;-75
2021/07/11 05:08:47;;;;;;;18.90;7.20;;;;;;;26.08;49.86;97419.75;4987339;28;20027;-75
2021/07/11 05:11:12;;;;;;;15.38;7.88;;;;;;;27.14;46.77;97422.38;4970731;28;20023;-75
2021/07/11 05:13:38;;;;;;;14.18;7.07;;;;;;;28.29;44.12;97423.34;4987098;28;20525;-74
2021/07/11 05:16:04;;;;;;;18.77;7.18;;;;;;;29.31;42.06;97412.75;4955107;29;20513;-74
2021/07/11 05:18:30;;;;;;;20.70;7.03;;;;;;;30.60;39.55;97421.69;4954827;29;20035;-75
2021/07/11 05:20:56;;;;;;;11.18;7.05;;;;;;;31.37;37.68;97418.47;4956223;28;20219;-74
2021/07/11 05:23:21;;;;;;;9.75;6.53;;;;;;;32.23;35.76;97415.50;4952891;29;20412;-76
2021/07/11 05:25:47;;;;;;;13.32;6.82;;;;;;;33.09;34.71;97415.88;4954836;29;20038;-74
2021/07/11 05:28:13;;;;;;;11.65;6.43;;;;;;;33.70;33.52;97414.53;4987089;28;20534;-75
2021/07/11 05:30:39;;;;;;;8.90;6.32;;;;;;;34.25;32.41;97421.25;4954521;29;20118;-74
2021/07/11 05:33:04;;;;;;;13.15;7.10;;;;;;;34.43;31.21;97413.78;4970696;28;20427;-75
2021/07/11 05:35:30;;;;;;;14.43;9.18;;;;;;;34.03;31.96;97414.66;4970474;28;20050;-75
2021/07/11 05:37:55;;;;;;;10.80;7.10;;;;;;;33.72;32.41;97410.41;4970630;28;20516;-75
2021/07/11 05:40:21;;;;;;;11.38;7.35;;;;;;;34.61;31.42;97414.44;4954181;28;20038;-75
2021/07/11 05:42:47;;;;;;;10.77;6.68;;;;;;;35.73;30.03;97417.97;4966750;28;20057;-77
2021/07/11 05:45:13;;;;;;;9.70;6.10;;;;;;;34.99;30.42;97412.88;4967568;28;20046;-74
2021/07/11 05:47:39;;;;;;;15.30;6.35;;;;;;;35.88;29.49;97412.59;4935780;29;20483;-73
2021/07/11 05:50:06;;;;;;;20.27;6.65;;;;;;;36.48;28.52;97414.44;4953016;28;20037;-74
2021/07/11 05:52:32;;;;;;;19.67;6.63;;;;;;;37.27;27.66;97409.06;4951882;29;20053;-74
2021/07/11 05:54:57;;;;;;;22.48;6.30;;;;;;;36.58;27.43;97408.16;4967743;28;20558;-74
2021/07/11 05:57:24;;;;;;;13.13;6.75;;;;;;;35.38;28.88;97403.50;4983725;28;20035;-74
2021/07/11 05:59:49;;;;;;;15.32;6.03;;;;;;;36.06;28.25;97410.59;4967675;28;20122;-74
2021/07/11 06:02:15;;;;;;;10.45;5.47;;;;;;;36.16;28.23;97410.72;4983964;28;20115;-73
2021/07/11 06:04:41;;;;;;;9.38;6.22;;;;;;;35.44;28.93;97410.00;4952440;29;20035;-74
2021/07/11 06:07:06;;;;;;;19.13;5.10;;;;;;;35.85;28.37;97409.47;4999938;28;20035;-74
2021/07/11 06:09:32;;;;;;;11.77;5.38;;;;;;;35.87;28.24;97410.91;4951465;29;20054;-74
2021/07/11 06:11:57;;;;;;;10.25;5.05;;;;;;;36.51;27.49;97413.91;4983635;28;20042;-74
2021/07/11 06:14:23;;;;;;;10.55;5.05;;;;;;;37.51;26.32;97406.72;4967255;28;20360;-76
2021/07/11 06:16:49;;;;;;;19.42;5.35;;;;;;;38.22;25.44;97405.13;4983459;28;20055;-75
2021/07/11 06:19:15;;;;;;;7.30;4.97;;;;;;;37.17;26.32;97390.28;4952558;28;20034;-75
2021/07/11 06:21:42;;;;;;;10.50;5.05;;;;;;;36.39;27.04;97400.09;4967156;28;20027;-74
2021/07/11 06:24:08;;;;;;;9.25;5.28;;;;;;;35.37;28.67;97404.63;4951040;29;20027;-74
2021/07/11 06:26:33;;;;;;;5.80;4.60;;;;;;;35.82;27.96;97399.69;4983414;28;20106;-74
2021/07/11 06:28:59;;;;;;;11.05;4.90;;;;;;;36.97;26.54;97403.22;4983137;28;20114;-75
2021/07/11 06:31:25;;;;;;;7.95;4.40;;;;;;;37.13;26.10;97397.50;4967126;28;20097;-74
2021/07/11 06:33:50;;;;;;;10.55;5.05;;;;;;;36.53;26.65;97400.56;4966764;28;20039;-74
2021/07/11 06:36:16;;;;;;;9.95;4.50;;;;;;;36.77;26.38;97406.66;4950632;29;20051;-75
2021/07/11 06:38:41;;;;;;;13.20;4.60;;;;;;;37.66;25.90;97404.00;4950829;29;20035;-75
2021/07/11 06:41:07;;;;;;;17.08;5.03;;;;;;;37.27;25.58;97395.94;4967040;28;20122;-75
2021/07/11 06:43:32;;;;;;;12.20;4.90;;;;;;;38.18;24.81;97395.63;4983024;28;20594;-75
2021/07/11 06:45:58;;;;;;;9.10;4.32;;;;;;;39.12;24.12;97389.66;4966708;28;20039;-74
2021/07/11 06:48:24;;;;;;;9.27;4.60;;;;;;;39.73;23.60;97387.63;4982939;28;20031;-74
2021/07/11 06:50:49;;;;;;;7.63;4.30;;;;;;;39.81;23.34;97387.88;4949792;28;20062;-75
2021/07/11 06:53:15;;;;;;;12.82;4.03;;;;;;;39.27;22.86;97370.91;4966462;28;20035;-75
2021/07/11 06:55:40;;;;;;;17.52;4.20;;;;;;;37.99;24.13;97370.94;4966342;28;20030;-75
2021/07/11 06:58:06;;;;;;;8.02;3.75;;;;;;;38.41;24.36;97378.38;4966303;28;20125;-75
2021/07/11 07:00:32;;;;;;;8.10;3.75;;;;;;;39.28;23.60;97380.16;4966769;28;20046;-75
2021/07/11 07:02:57;;;;;;;9.73;4.18;;;;;;;39.13;24.17;97386.59;4966220;28;20027;-75
2021/07/11 07:05:25;;;;;;;9.63;4.25;;;;;;;38.26;23.78;97369.94;4950217;29;20035;-74
2021/07/11 07:07:50;;;;;;;13.93;4.20;;;;;;;38.58;23.74;97372.56;4950330;29;20110;-75
2021/07/11 07:10:17;;;;;;;8.90;4.00;;;;;;;39.02;23.87;97368.94;4966139;28;20220;-75
2021/07/11 07:12:43;;;;;;;12.38;4.03;;;;;;;39.43;23.35;97369.75;4947566;29;20487;-75
2021/07/11 07:15:09;;;;;;;8.63;4.20;;;;;;;39.36;23.34;97366.41;4964329;28;20115;-75
2021/07/11 07:17:35;;;;;;;11.60;4.13;;;;;;;40.10;22.06;97373.22;4982239;28;20035;-74
2021/07/11 07:20:01;;;;;;;21.67;5.18;;;;;;;40.99;22.02;97365.38;4949857;29;20081;-74
2021/07/11 07:22:27;;;;;;;8.43;4.10;;;;;;;41.24;21.13;97360.63;4982401;28;20031;-74
2021/07/11 07:24:53;;;;;;;6.82;3.60;;;;;;;40.80;20.80;97366.31;4965890;28;20498;-74
2021/07/11 07:27:18;;;;;;;5.32;3.90;;;;;;;40.67;22.08;97367.00;4981968;28;20042;-74
2021/07/11 07:29:44;;;;;;;12.57;4.47;;;;;;;42.14;21.21;97365.28;4949632;29;20101;-74
2021/07/11 07:32:09;;;;;;;46.95;6.20;;;;;;;42.31;20.56;97359.16;4949737;29;20034;-74
2021/07/11 07:34:35;;;;;;;12.48;5.10;;;;;;;42.24;20.50;97360.69;4951088;28;20107;-74
2021/07/11 07:37:00;;;;;;;11.75;4.07;;;;;;;42.86;20.26;97365.06;4949470;29;20039;-74
2021/07/11 07:39:29;;;;;;;11.95;5.15;;;;;;;42.25;20.99;97370.78;4949748;29;20027;-74
2021/07/11 07:41:55;;;;;;;14.45;4.30;;;;;;;42.54;21.00;97369.50;4949585;29;20510;-75
2021/07/11 07:44:21;;;;;;;9.90;4.35;;;;;;;41.67;21.55;97367.22;4949790;29;20039;-74
2021/07/11 07:46:47;;;;;;;8.18;4.50;;;;;;;42.02;20.66;97367.69;4982138;28;20027;-75
2021/07/11 07:49:12;;;;;;;5.22;3.70;;;;;;;41.08;21.11;97363.59;4981724;28;20042;-74
2021/07/11 07:51:40;;;;;;;13.60;4.18;;;;;;;41.55;20.78;97362.03;4981943;28;20505;-75
2021/07/11 07:54:05;;;;;;;12.73;4.00;;;;;;;42.11;20.40;97360.25;4965668;28;20499;-75
2021/07/11 07:56:31;;;;;;;6.10;5.10;;;;;;;42.41;19.72;97361.81;4965579;28;20038;-75
2021/07/11 07:58:57;;;;;;;6.13;4.13;;;;;;;42.20;19.44;97352.00;4949518;29;20109;-75
2021/07/11 08:01:22;;;;;;;10.40;4.50;;;;;;;42.25;20.35;97360.34;4981616;28;20102;-75
2021/07/11 08:03:48;;;;;;;10.05;4.22;;;;;;;41.82;20.34;97345.44;4981475;28;20035;-75
2021/07/11 08:06:13;;;;;;;11.93;4.15;;;;;;;41.53;21.05;97339.84;4965192;28;20066;-74
2021/07/11 08:08:39;;;;;;;7.10;4.50;;;;;;;42.50;20.81;97351.56;4965571;28;20031;-75
2021/07/11 08:11:07;;;;;;;6.40;5.35;;;;;;;42.86;20.23;97346.22;4981565;28;20028;-74
2021/07/11 08:13:36;;;;;;;6.07;3.83;;;;;;;42.00;20.21;97339.00;4965062;28;20419;-73
2021/07/11 08:16:02;;;;;;;9.90;4.07;;;;;;;43.10;19.43;97338.50;4950354;28;20031;-74
2021/07/11 08:18:28;;;;;;;8.32;4.13;;;;;;;42.93;19.38;97338.22;4981307;28;20034;-75
2021/07/11 08:20:54;;;;;;;12.77;4.03;;;;;;;43.13;19.92;97340.69;4949285;29;20015;-75
2021/07/11 08:23:19;;;;;;;6.97;3.83;;;;;;;43.35;20.37;97340.00;4981211;28;20023;-75
2021/07/11 08:25:45;;;;;;;7.40;4.60;;;;;;;43.31;19.49;97343.78;4981233;28;20054;-75
2021/07/11 08:28:10;;;;;;;7.70;3.75;;;;;;;42.62;19.41;97334.22;4950376;29;20035;-75
2021/07/11 08:30:36;;;;;;;5.32;3.67;;;;;;;43.10;19.44;97327.22;4965174;28;20047;-73
2021/07/11 08:33:02;;;;;;;27.45;5.18;;;;;;;43.89;18.94;97341.25;4948977;29;20024;-75
2021/07/11 08:35:28;;;;;;;10.18;4.35;;;;;;;43.53;18.78;97325.03;4950193;28;20055;-74
2021/07/11 08:37:53;;;;;;;9.60;4.32;;;;;;;44.60;18.44;97329.25;4950359;29;20035;-75
2021/07/11 08:40:19;;;;;;;10.60;4.53;;;;;;;45.70;16.72;97314.25;4948746;29;20388;-74
2021/07/11 08:42:45;;;;;;;7.70;4.07;;;;;;;45.01;16.61;97312.16;4948961;29;20031;-73
2021/07/11 08:45:11;;;;;;;6.05;3.58;;;;;;;44.52;17.54;97315.84;4981111;28;20574;-74
2021/07/11 08:47:38;;;;;;;8.43;3.85;;;;;;;43.31;18.11;97302.34;4981227;28;20031;-74
2021/07/11 08:50:05;;;;;;;14.57;3.70;;;;;;;43.83;18.58;97303.03;4930155;29;20091;-74
2021/07/11 08:52:32;;;;;;;7.35;5.18;;;;;;;44.15;18.85;97309.38;4981025;28;20035;-74
2021/07/11 08:54:57;;;;;;;7.97;3.90;;;;;;;44.88;17.34;97305.41;4964869;28;20082;-74
2021/07/11 08:57:23;;;;;;;7.50;4.60;;;;;;;45.23;18.06;97300.81;4949050;29;20438;-75
2021/07/11 08:59:49;;;;;;;7.10;3.72;;;;;;;44.64;17.48;97299.25;4980937;28;20118;-74
2021/07/11 09:02:15;;;;;;;10.90;5.18;;;;;;;45.19;18.58;97303.44;4964964;28;20028;-74
2021/07/11 09:04:47;;;;;;;9.93;4.75;;;;;;;44.45;18.33;97292.91;4949876;28;20035;-74
2021/07/11 09:07:17;;;;;;;7.75;4.25;;;;;;;43.29;18.73;97286.91;4948754;29;20055;-75
2021/07/11 09:09:43;;;;;;;6.47;3.72;;;;;;;42.57;19.17;97284.50;4950017;28;20573;-75
2021/07/11 09:12:11;;;;;;;5.45;3.90;;;;;;;42.37;18.91;97283.94;4981253;28;20062;-74
2021/07/11 09:14:42;;;;;;;11.07;3.85;;;;;;;42.06;19.79;97273.13;4982677;28;20509;-75
2021/07/11 09:17:09;;;;;;;8.93;3.90;;;;;;;43.13;19.37;97278.72;4984337;28;20031;-74
2021/07/11 09:19:48;;;;;;;6.90;5.20;;;;;;;43.03;18.80;97275.28;4968205;28;20499;-74
2021/07/11 09:22:24;;;;;;;5.95;3.58;;;;;;;41.97;19.78;97260.88;4936337;29;20042;-74
2021/07/11 09:24:54;;;;;;;9.45;4.40;;;;;;;40.30;21.06;97269.34;4984396;28;20090;-74
2021/07/11 09:27:31;;;;;;;5.22;3.92;;;;;;;38.72;22.40;97268.22;4952198;29;20046;-73
2021/07/11 09:30:06;;;;;;;5.20;3.95;;;;;;;36.98;24.83;97276.56;4982171;28;20478;-74
2021/07/11 09:32:34;;;;;;;9.57;4.15;;;;;;;36.21;26.11;97275.06;4967992;28;20153;-74
2021/07/11 09:35:11;;;;;;;11.25;4.47;;;;;;;37.08;24.45;97271.06;4967739;28;20134;-75
2021/07/11 09:37:38;;;;;;;5.38;4.20;;;;;;;39.16;22.66;97274.03;4984379;28;20027;-74
2021/07/11 09:40:05;;;;;;;6.90;4.00;;;;;;;40.94;20.87;97261.53;4984017;28;20035;-75
2021/07/11 09:42:36;;;;;;;6.63;4.10;;;;;;;41.68;20.31;97265.78;4969057;28;20028;-75
2021/07/11 09:45:05;;;;;;;4.85;3.80;;;;;;;41.98;20.84;97275.78;4968692;28;20507;-75
2021/07/11 09:47:31;;;;;;;7.35;3.95;;;;;;;42.80;18.86;97262.97;4986799;28;20469;-75
2021/07/11 09:50:07;;;;;;;4.88;3.83;;;;;;;43.25;19.78;97266.13;4970251;28;20074;-75
2021/07/11 09:52:33;;;;;;;10.43;4.18;;;;;;;43.58;19.12;97264.91;4970352;28;20034;-75
2021/07/11 09:55:01;;;;;;;7.30;4.00;;;;;;;43.91;19.70;97280.56;4986249;28;20031;-74
2021/07/11 09:57:45;;;;;;;17.42;4.28;;;;;;;43.82;18.69;97262.72;4970110;28;20038;-75
2021/07/11 10:00:24;;;;;;;10.50;4.38;;;;;;;44.68;18.04;97260.72;4955236;28;20410;-74
2021/07/11 10:02:53;;;;;;;8.95;4.60;;;;;;;44.65;18.43;97269.84;4986593;28;20031;-74
2021/07/11 10:05:19;;;;;;;9.60;4.82;;;;;;;45.44;18.02;97255.91;4986453;28;20406;-74
2021/07/11 10:07:45;;;;;;;5.57;4.22;;;;;;;44.64;17.25;97259.72;4969841;28;20451;-75
2021/07/11 10:10:15;;;;;;;10.15;3.95;;;;;;;44.26;18.20;97256.38;4986134;28;20110;-73
2021/07/11 10:12:42;;;;;;;6.63;3.95;;;;;;;44.74;18.13;97250.97;4970005;28;20114;-75
2021/07/11 10:15:13;;;;;;;5.97;3.67;;;;;;;45.42;16.68;97249.72;4985917;28;20031;-75
2021/07/11 10:17:46;;;;;;;5.63;3.95;;;;;;;46.39;16.58;97251.31;4955339;28;20479;-74
2021/07/11 10:20:14;;;;;;;19.38;4.18;;;;;;;46.96;16.05;97241.44;4953491;29;20027;-75
2021/07/11 10:22:50;;;;;;;4.50;3.90;;;;;;;46.24;16.66;97247.78;4986280;28;20098;-74
2021/07/11 10:25:21;;;;;;;6.38;3.78;;;;;;;47.29;15.75;97253.88;4985059;28;21493;-73
2021/07/11 10:27:49;;;;;;;6.32;4.05;;;;;;;44.99;17.67;97227.72;4969502;28;20031;-74
2021/07/11 10:30:15;;;;;;;6.90;4.30;;;;;;;45.67;17.62;97243.31;4985673;28;20037;-76
2021/07/11 10:32:41;;;;;;;6.82;4.38;;;;;;;46.72;16.86;97235.47;4954792;28;20027;-74
2021/07/11 10:35:15;;;;;;;6.03;4.97;;;;;;;46.85;17.21;97240.16;4985639;28;20058;-73
2021/07/11 10:37:50;;;;;;;12.35;3.70;;;;;;;45.48;18.30;97228.63;4969533;28;20561;-74
2021/07/11 10:40:20;;;;;;;9.73;4.80;;;;;;;45.63;18.66;97231.00;4985481;28;20029;-74
2021/07/11 10:42:46;;;;;;;11.32;4.80;;;;;;;45.51;18.37;97227.97;4985681;28;20409;-74
2021/07/11 10:45:14;;;;;;;14.98;4.22;;;;;;;44.54;18.51;97229.75;4984815;28;20027;-74
2021/07/11 10:47:41;;;;;;;7.20;4.00;;;;;;;43.24;19.41;97225.00;4953358;29;20032;-73
2021/07/11 10:50:29;;;;;;;4.68;4.10;;;;;;;41.46;20.73;97223.34;4985473;28;20039;-75
2021/07/11 10:52:56;;;;;;;11.07;4.95;;;;;;;39.84;22.85;97221.94;4985720;28;20188;-74
2021/07/11 10:55:22;;;;;;;12.60;5.82;;;;;;;39.10;24.18;97226.75;4952812;28;20031;-74
2021/07/11 10:57:48;;;;;;;8.00;4.20;;;;;;;37.93;24.36;97204.41;4969065;28;20031;-74
2021/07/11 11:00:19;;;;;;;8.15;4.50;;;;;;;37.66;25.65;97223.31;4968916;28;20058;-75
2021/07/11 11:02:47;;;;;;;7.23;4.37;;;;;;;36.51;26.51;97221.56;4985432;28;20487;-74
2021/07/11 11:05:20;;;;;;;7.35;3.90;;;;;;;36.37;27.16;97221.16;4951193;29;20459;-74
2021/07/11 11:07:56;;;;;;;5.00;4.38;;;;;;;36.92;26.35;97219.88;4983914;28;20039;-75
2021/07/11 11:10:24;;;;;;;10.82;8.00;;;;;;;38.14;25.49;97222.06;4985181;28;20542;-75
2021/07/11 11:13:08;;;;;;;19.20;11.52;;;;;;;40.96;23.23;97211.53;4954047;28;20035;-75
2021/07/11 11:15:54;;;;;;;20.63;9.85;;;;;;;42.25;22.01;97202.81;4984994;28;20027;-74
2021/07/11 11:18:38;;;;;;;12.88;4.32;;;;;;;40.87;23.72;97204.88;4984950;28;20419;-74
2021/07/11 11:21:07;;;;;;;81.82;7.97;;;;;;;43.53;21.02;97197.38;4952866;29;20114;-75
2021/07/11 11:23:40;;;;;;;11.25;5.55;;;;;;;44.10;20.07;97205.09;4977271;28;20051;-75
2021/07/11 11:26:07;;;;;;;16.05;4.68;;;;;;;44.56;19.95;97196.38;4984245;28;20034;-75
2021/07/11 11:28:38;;;;;;;6.72;4.35;;;;;;;44.85;18.92;97186.56;4975147;28;20507;-75
2021/07/11 11:31:34;;;;;;;7.47;4.10;;;;;;;45.23;18.58;97180.13;4982150;28;20414;-75